Time;durP1;ratioP1;P1;durP2;ratioP2;P2;SDS_P1;SDS_P2;PMS_P1;PMS_P2;Temp;Humidity;BMP_temperature;BMP_pressure;BME280_temperature;BME280_humidity;BME280_pressure;Samples;Min_cycle;Max_cycle;Signal;HPM_P1;HPM_P2
2023/07/01 00:02:14;;;;;;;4.30;2.08;;;;;;;16.18;100.00;99605.44;4966471;28;20239;-79
2023/07/01 00:04:41;;;;;;;3.70;2.05;;;;;;;16.14;100.00;99611.75;4973127;28;20235;-79
2023/07/01 00:07:08;;;;;;;4.88;2.50;;;;;;;15.99;100.00;99601.50;4971321;28;20228;-79
2023/07/01 00:09:34;;;;;;;3.88;2.17;;;;;;;15.89;100.00;99624.88;4976824;28;20307;-78
2023/07/01 00:12:01;;;;;;;4.00;2.20;;;;;;;15.92;100.00;99634.56;4956240;28;20282;-79
2023/07/01 00:14:28;;;;;;;4.88;2.22;;;;;;;15.84;100.00;99620.56;4975124;28;20699;-78
2023/07/01 00:16:55;;;;;;;5.47;2.30;;;;;;;15.79;100.00;99630.47;4980014;28;20236;-80
2023/07/01 00:19:21;;;;;;;16.13;5.50;;;;;;;16.07;100.00;99638.63;4974385;28;20237;-80
2023/07/01 00:21:48;;;;;;;6.05;2.50;;;;;;;15.91;100.00;99628.38;4973884;28;20240;-82
2023/07/01 00:24:15;;;;;;;11.52;3.58;;;;;;;15.89;100.00;99624.00;4970765;28;20593;-81
2023/07/01 00:26:41;;;;;;;7.88;3.08;;;;;;;15.83;100.00;99632.13;4973726;28;20243;-81
2023/07/01 00:29:08;;;;;;;13.02;3.80;;;;;;;15.78;100.00;99639.38;4981245;28;20291;-80
2023/07/01 00:31:35;;;;;;;5.88;2.65;;;;;;;15.60;100.00;99651.31;4988656;28;20232;-80
2023/07/01 00:34:01;;;;;;;7.47;3.00;;;;;;;15.52;100.00;99661.25;4987166;28;20232;-82
2023/07/01 00:36:28;;;;;;;6.30;2.35;;;;;;;15.43;100.00;99674.78;4969760;28;20237;-80
2023/07/01 00:38:55;;;;;;;7.70;2.72;;;;;;;15.40;100.00;99691.72;4974966;28;20236;-80
2023/07/01 00:41:22;;;;;;;30.33;5.97;;;;;;;15.43;100.00;99690.78;4970171;28;20237;-79
2023/07/01 00:43:49;;;;;;;4.75;2.20;;;;;;;15.44;100.00;99700.53;4983896;28;20217;-81
2023/07/01 00:46:16;;;;;;;32.53;8.07;;;;;;;15.40;100.00;99701.50;4971197;28;20227;-79
2023/07/01 00:48:44;;;;;;;5.68;2.63;;;;;;;15.36;100.00;99717.56;4975745;28;20240;-79
2023/07/01 00:51:10;;;;;;;22.75;6.10;;;;;;;15.25;100.00;99718.69;4962490;28;20227;-80
2023/07/01 00:53:39;;;;;;;5.13;2.20;;;;;;;15.35;100.00;99722.91;4974064;28;20221;-79
2023/07/01 00:56:07;;;;;;;4.38;1.98;;;;;;;15.28;100.00;99724.84;4966536;28;20224;-80
2023/07/01 00:58:34;;;;;;;5.47;2.55;;;;;;;15.33;100.00;99736.28;4972029;28;20251;-81
2023/07/01 01:01:05;;;;;;;4.18;1.80;;;;;;;15.35;100.00;99739.78;4978399;28;20231;-80
2023/07/01 01:03:35;;;;;;;7.78;3.20;;;;;;;15.51;100.00;99742.13;4962454;28;20601;-80
2023/07/01 01:06:23;;;;;;;7.65;3.03;;;;;;;15.33;100.00;99732.72;4957583;28;20285;-81
2023/07/01 01:08:50;;;;;;;8.23;2.97;;;;;;;15.31;100.00;99747.88;4968438;28;20239;-78
2023/07/01 01:11:17;;;;;;;9.88;3.25;;;;;;;15.24;100.00;99752.44;4974589;28;20228;-82
2023/07/01 01:13:44;;;;;;;10.27;3.47;;;;;;;15.16;100.00;99756.19;4956688;28;20241;-80
2023/07/01 01:16:11;;;;;;;16.20;4.93;;;;;;;15.16;100.00;99766.84;4954262;28;20233;-80
2023/07/01 01:18:39;;;;;;;6.55;2.45;;;;;;;15.14;100.00;99771.31;4958023;28;20229;-81
2023/07/01 01:21:06;;;;;;;7.60;2.88;;;;;;;15.17;100.00;99781.91;4964097;28;20233;-80
2023/07/01 01:23:38;;;;;;;7.70;2.63;;;;;;;14.98;100.00;99781.38;4954500;28;20243;-78
2023/07/01 01:26:27;;;;;;;7.97;2.75;;;;;;;15.01;100.00;99795.53;4971350;28;20260;-79
2023/07/01 01:28:55;;;;;;;7.78;2.95;;;;;;;14.96;100.00;99792.06;4952620;28;20252;-78
2023/07/01 01:31:22;;;;;;;10.18;4.22;;;;;;;14.91;100.00;99798.38;4971434;28;20228;-79
2023/07/01 01:33:48;;;;;;;7.28;2.65;;;;;;;14.98;100.00;99811.56;4974902;28;20244;-79
2023/07/01 01:36:26;;;;;;;6.88;2.78;;;;;;;14.82;100.00;99798.56;4963278;28;20217;-79
2023/07/01 01:38:57;;;;;;;3.50;2.03;;;;;;;14.76;100.00;99806.66;4977461;28;20243;-79
2023/07/01 01:41:31;;;;;;;9.57;4.22;;;;;;;14.75;100.00;99815.53;4959417;28;20224;-78
2023/07/01 01:44:04;;;;;;;4.18;2.33;;;;;;;14.67;100.00;99831.66;4963300;28;20223;-79
2023/07/01 01:46:32;;;;;;;3.45;1.75;;;;;;;14.61;100.00;99843.28;4964960;28;20239;-78
2023/07/01 01:49:03;;;;;;;6.95;3.58;;;;;;;14.57;100.00;99856.66;4960418;28;20239;-78
2023/07/01 01:51:31;;;;;;;7.95;3.10;;;;;;;14.54;100.00;99873.56;4956643;28;20303;-79
2023/07/01 01:53:58;;;;;;;7.65;3.08;;;;;;;14.52;100.00;99886.00;4956380;28;20234;-78
2023/07/01 01:56:27;;;;;;;8.88;3.70;;;;;;;14.53;100.00;99893.06;4956277;28;20259;-78
2023/07/01 01:58:54;;;;;;;4.78;2.30;;;;;;;14.32;100.00;99899.56;4970792;28;20232;-79
2023/07/01 02:01:20;;;;;;;11.23;4.80;;;;;;;14.47;100.00;99921.56;4954308;28;20229;-77
2023/07/01 02:03:47;;;;;;;5.65;2.50;;;;;;;14.39;100.00;99929.63;4977621;28;20582;-79
2023/07/01 02:06:14;;;;;;;7.68;3.30;;;;;;;14.35;100.00;99934.09;4975830;28;20343;-78
2023/07/01 02:08:41;;;;;;;7.65;2.90;;;;;;;14.28;100.00;99936.84;4974350;28;20237;-78
2023/07/01 02:11:08;;;;;;;7.03;2.75;;;;;;;14.27;100.00;99943.06;4967589;28;20233;-77
2023/07/01 02:13:34;;;;;;;6.47;2.53;;;;;;;14.24;100.00;99938.66;4977650;28;20331;-78
2023/07/01 02:16:01;;;;;;;5.70;2.33;;;;;;;14.20;100.00;99954.69;4966999;28;20616;-78
2023/07/01 02:18:28;;;;;;;11.60;3.97;;;;;;;14.14;100.00;99960.97;4974869;28;20275;-79
2023/07/01 02:20:54;;;;;;;6.07;2.78;;;;;;;14.10;100.00;99961.91;4975165;28;20236;-79
2023/07/01 02:23:21;;;;;;;16.02;4.93;;;;;;;14.10;100.00;99943.28;4967939;28;20235;-81
2023/07/01 02:25:48;;;;;;;8.18;2.80;;;;;;;14.12;100.00;99927.31;4982779;28;20236;-80
2023/07/01 02:28:15;;;;;;;25.42;7.07;;;;;;;14.15;100.00;99917.53;4973088;28;20251;-79
2023/07/01 02:30:41;;;;;;;12.02;4.10;;;;;;;14.19;100.00;99911.25;4974083;28;20735;-79
2023/07/01 02:33:08;;;;;;;10.88;3.30;;;;;;;14.07;100.00;99904.31;4971914;28;20223;-78
2023/07/01 02:35:35;;;;;;;9.38;2.78;;;;;;;14.05;100.00;99906.13;4977954;28;20241;-78
2023/07/01 02:38:01;;;;;;;10.50;3.35;;;;;;;13.96;100.00;99902.72;4969807;28;20243;-78
2023/07/01 02:40:28;;;;;;;8.05;2.47;;;;;;;13.91;100.00;99912.53;4964953;28;20244;-78
2023/07/01 02:42:55;;;;;;;7.82;2.58;;;;;;;13.77;100.00;99915.34;4967520;28;20236;-78
2023/07/01 02:45:21;;;;;;;12.35;3.45;;;;;;;13.62;100.00;99926.16;4970057;28;20225;-80
2023/07/01 02:47:48;;;;;;;9.52;3.20;;;;;;;13.72;100.00;99936.69;4969723;28;20236;-78
2023/07/01 02:50:15;;;;;;;17.65;4.90;;;;;;;13.62;100.00;99927.03;4949696;28;20233;-78
2023/07/01 02:52:42;;;;;;;6.72;2.60;;;;;;;13.53;100.00;99937.78;4973125;28;20254;-78
2023/07/01 02:55:10;;;;;;;12.00;3.97;;;;;;;13.57;100.00;99947.47;4965810;28;20233;-78
2023/07/01 02:57:36;;;;;;;7.25;3.00;;;;;;;13.56;100.00;99950.16;4968258;28;20247;-78
2023/07/01 03:00:07;;;;;;;6.97;2.85;;;;;;;13.43;100.00;99952.94;4974437;28;20232;-78
2023/07/01 03:02:34;;;;;;;6.63;2.60;;;;;;;13.54;100.00;99967.88;4971054;28;20245;-78
2023/07/01 03:05:01;;;;;;;5.70;2.53;;;;;;;13.55;100.00;99962.56;4967352;28;20320;-78
2023/07/01 03:07:28;;;;;;;7.35;2.70;;;;;;;13.44;100.00;99972.41;4972930;28;20244;-78
2023/07/01 03:09:54;;;;;;;9.18;3.15;;;;;;;13.44;100.00;99977.72;4978387;28;20252;-77
2023/07/01 03:12:21;;;;;;;11.27;3.85;;;;;;;13.31;100.00;99978.72;4966813;28;20235;-78
2023/07/01 03:14:48;;;;;;;9.68;3.47;;;;;;;13.21;100.00;99993.88;4970288;28;20247;-77
2023/07/01 03:17:15;;;;;;;11.88;3.65;;;;;;;13.27;100.00;99999.13;4965539;28;20228;-77
2023/07/01 03:19:41;;;;;;;6.03;2.38;;;;;;;13.18;100.00;100003.63;4956718;28;20240;-77
2023/07/01 03:22:08;;;;;;;11.60;3.78;;;;;;;13.26;100.00;100012.41;4971888;28;20240;-77
2023/07/01 03:24:35;;;;;;;7.35;3.20;;;;;;;13.18;100.00;100014.25;4970031;28;20354;-78
2023/07/01 03:27:05;;;;;;;7.20;2.58;;;;;;;13.08;100.00;100038.19;4975963;28;20241;-77
2023/07/01 03:29:33;;;;;;;9.05;3.08;;;;;;;13.14;100.00;100043.44;4972617;28;20705;-79
2023/07/01 03:32:03;;;;;;;5.63;2.20;;;;;;;13.13;100.00;100049.66;4974102;28;20228;-79
2023/07/01 03:34:30;;;;;;;7.60;2.72;;;;;;;13.13;100.00;100054.97;4959506;28;20232;-80
2023/07/01 03:36:57;;;;;;;4.72;2.05;;;;;;;13.22;100.00;100056.69;4980137;28;20568;-79
2023/07/01 03:39:24;;;;;;;12.73;4.18;;;;;;;13.08;100.00;100053.25;4974895;28;20236;-79
2023/07/01 03:41:50;;;;;;;8.70;3.05;;;;;;;13.17;100.00;100058.50;4969474;28;20225;-78
2023/07/01 03:44:17;;;;;;;34.78;7.97;;;;;;;13.13;100.00;100067.34;4963190;28;20312;-77
2023/07/01 03:46:44;;;;;;;3.90;1.98;;;;;;;13.12;100.00;100074.44;4976040;28;20225;-77
2023/07/01 03:49:11;;;;;;;19.52;4.88;;;;;;;13.20;100.00;100076.19;4967894;28;20232;-78
2023/07/01 03:51:38;;;;;;;4.65;2.40;;;;;;;13.33;100.00;100075.22;4976067;28;20239;-77
2023/07/01 03:54:05;;;;;;;5.53;2.75;;;;;;;13.29;100.00;100065.50;4975167;28;20225;-79
2023/07/01 03:56:32;;;;;;;3.70;2.08;;;;;;;13.33;100.00;100067.25;4967703;28;20677;-79
2023/07/01 03:58:59;;;;;;;3.95;2.28;;;;;;;13.29;100.00;100062.84;4968928;28;20229;-79
2023/07/01 04:01:27;;;;;;;17.83;4.72;;;;;;;13.35;100.00;100061.03;4966092;28;20243;-79
2023/07/01 04:03:55;;;;;;;3.90;1.98;;;;;;;13.40;100.00;100056.56;4967010;28;20299;-81
2023/07/01 04:06:23;;;;;;;26.77;6.65;;;;;;;13.37;100.00;100061.88;4950935;28;20679;-81
2023/07/01 04:08:54;;;;;;;2.13;1.48;;;;;;;13.43;100.00;100074.25;4973110;28;20240;-77
2023/07/01 04:11:23;;;;;;;9.82;3.20;;;;;;;13.54;100.00;100068.84;4949750;28;20221;-78
2023/07/01 04:13:49;;;;;;;3.30;2.17;;;;;;;13.60;100.00;100064.34;4966385;28;20233;-77
2023/07/01 04:16:16;;;;;;;20.35;5.70;;;;;;;13.73;100.00;100063.34;4968086;28;20236;-77
2023/07/01 04:18:43;;;;;;;2.88;1.75;;;;;;;13.83;100.00;100057.94;4972009;28;20649;-78
2023/07/01 04:21:10;;;;;;;15.98;4.18;;;;;;;13.88;100.00;100066.72;4952666;28;20228;-78
2023/07/01 04:23:37;;;;;;;3.53;1.85;;;;;;;13.96;100.00;100065.75;4974514;28;20298;-78
2023/07/01 04:26:05;;;;;;;3.42;2.30;;;;;;;14.07;100.00;100065.63;4970671;28;20232;-78
2023/07/01 04:28:31;;;;;;;2.63;1.88;;;;;;;14.15;100.00;100071.75;4965325;28;20239;-78
2023/07/01 04:30:58;;;;;;;2.85;1.80;;;;;;;14.22;100.00;100092.06;4972462;28;20227;-79
2023/07/01 04:33:25;;;;;;;7.90;3.25;;;;;;;14.42;100.00;100078.59;4947198;28;20232;-79
2023/07/01 04:35:52;;;;;;;2.33;1.70;;;;;;;14.51;100.00;100078.47;4972206;28;20284;-78
2023/07/01 04:38:18;;;;;;;30.08;7.47;;;;;;;14.62;100.00;100057.94;4966332;28;20247;-78
2023/07/01 04:40:45;;;;;;;3.08;1.83;;;;;;;14.68;100.00;100068.50;4977250;28;20257;-79
2023/07/01 04:43:16;;;;;;;25.55;6.43;;;;;;;14.82;100.00;100054.09;4972000;28;20220;-79
2023/07/01 04:45:43;;;;;;;2.47;1.73;;;;;;;14.84;100.00;100050.53;4975311;28;20233;-80
2023/07/01 04:48:10;;;;;;;18.08;5.57;;;;;;;14.92;100.00;100056.63;4967125;28;20329;-84
2023/07/01 04:50:37;;;;;;;3.92;2.30;;;;;;;15.02;100.00;100047.59;4977203;28;20296;-84
2023/07/01 04:53:04;;;;;;;3.63;2.20;;;;;;;15.11;100.00;100051.88;4978549;28;20220;-84
2023/07/01 04:55:31;;;;;;;2.97;1.73;;;;;;;15.17;100.00;100046.47;4978082;28;20264;-83
2023/07/01 04:57:58;;;;;;;4.60;2.30;;;;;;;15.25;100.00;100041.00;4973549;28;20237;-85
2023/07/01 05:00:24;;;;;;;22.95;5.50;;;;;;;15.29;100.00;100011.63;4976011;28;20224;-86
2023/07/01 05:02:51;;;;;;;1.80;1.48;;;;;;;15.35;100.00;100024.84;4981031;28;20249;-88
2023/07/01 05:05:18;;;;;;;20.42;5.85;;;;;;;15.43;100.00;100014.06;4983025;28;20282;-83
2023/07/01 05:07:46;;;;;;;1.92;1.33;;;;;;;15.54;100.00;99996.09;4969303;28;20234;-84
2023/07/01 05:10:13;;;;;;;23.65;7.15;;;;;;;15.54;100.00;100001.44;4969898;28;20233;-79
2023/07/01 05:12:40;;;;;;;2.60;1.88;;;;;;;15.69;100.00;99995.00;4984886;28;20235;-80
2023/07/01 05:15:07;;;;;;;2.55;1.75;;;;;;;15.71;100.00;99976.31;4958963;28;20229;-81
2023/07/01 05:17:34;;;;;;;2.63;1.73;;;;;;;15.85;100.00;99982.25;4976604;28;20239;-81
2023/07/01 05:20:01;;;;;;;2.88;1.63;;;;;;;15.89;100.00;99978.63;4976958;28;20229;-80
2023/07/01 05:22:27;;;;;;;2.33;1.50;;;;;;;16.12;100.00;99965.69;4963401;28;20411;-81
2023/07/01 05:24:54;;;;;;;3.10;2.00;;;;;;;16.19;100.00;99963.78;4977868;28;20259;-82
2023/07/01 05:27:21;;;;;;;21.52;6.07;;;;;;;16.29;100.00;99962.66;4969343;28;20284;-81
2023/07/01 05:29:48;;;;;;;2.97;1.95;;;;;;;16.45;100.00;99977.41;4967615;28;20233;-80
2023/07/01 05:32:15;;;;;;;11.88;4.50;;;;;;;16.30;100.00;99951.94;4972237;28;20226;-80
2023/07/01 05:34:42;;;;;;;3.15;2.17;;;;;;;16.30;100.00;99933.28;4975861;28;20229;-81
2023/07/01 05:37:09;;;;;;;7.60;2.95;;;;;;;16.40;100.00;99933.94;4972750;28;20735;-80
2023/07/01 05:39:35;;;;;;;2.38;1.55;;;;;;;16.57;100.00;99947.78;4966654;28;20389;-79
2023/07/01 05:42:03;;;;;;;2.38;1.67;;;;;;;16.72;100.00;99938.56;4983771;28;20228;-82
2023/07/01 05:44:29;;;;;;;2.17;1.50;;;;;;;16.82;100.00;99931.22;4976393;28;20241;-80
2023/07/01 05:46:56;;;;;;;3.33;1.90;;;;;;;17.06;100.00;99921.75;4979015;28;20225;-82
2023/07/01 05:49:23;;;;;;;18.42;5.32;;;;;;;17.24;100.00;99918.59;4971632;28;20224;-81
2023/07/01 05:51:50;;;;;;;4.25;2.15;;;;;;;17.37;100.00;99903.09;4969755;28;20233;-81
2023/07/01 05:54:17;;;;;;;26.08;6.75;;;;;;;17.62;100.00;99901.50;4973897;28;20229;-82
2023/07/01 05:56:43;;;;;;;2.60;1.60;;;;;;;17.78;100.00;99910.00;4969183;28;20256;-81
2023/07/01 05:59:11;;;;;;;14.25;4.65;;;;;;;17.80;100.00;99862.69;4966168;28;20274;-80
2023/07/01 06:01:39;;;;;;;4.88;2.35;;;;;;;17.90;100.00;99858.81;4961587;28;20232;-80
2023/07/01 06:04:05;;;;;;;2.95;1.60;;;;;;;18.10;100.00;99832.34;4966471;28;20244;-86
2023/07/01 06:06:32;;;;;;;2.58;1.50;;;;;;;18.51;100.00;99851.59;4963229;28;20228;-81
2023/07/01 06:08:59;;;;;;;2.40;1.30;;;;;;;18.60;100.00;99794.16;4985193;28;20347;-81
2023/07/01 06:11:26;;;;;;;15.73;4.43;;;;;;;18.47;100.00;99716.94;4965586;28;20240;-82
2023/07/01 06:13:53;;;;;;;2.90;1.70;;;;;;;18.45;100.00;99702.72;4980650;28;20236;-81
2023/07/01 06:16:20;;;;;;;31.35;8.07;;;;;;;18.34;100.00;99694.19;4973280;28;20240;-82
2023/07/01 06:18:47;;;;;;;3.22;1.80;;;;;;;18.33;100.00;99694.25;4967044;28;20291;-81
2023/07/01 06:21:13;;;;;;;28.50;7.68;;;;;;;18.47;100.00;99716.06;4953718;28;20217;-81
2023/07/01 06:23:41;;;;;;;3.63;1.73;;;;;;;18.58;100.00;99691.59;4970319;28;20229;-82
2023/07/01 06:26:07;;;;;;;6.95;2.83;;;;;;;18.69;100.00;99695.66;4962562;28;20319;-91
2023/07/01 06:28:34;;;;;;;4.50;2.35;;;;;;;18.85;100.00;99671.88;4976781;28;20251;-83
2023/07/01 06:31:01;;;;;;;5.20;2.55;;;;;;;19.02;100.00;99684.66;4977245;28;20237;-81
2023/07/01 06:33:28;;;;;;;4.15;1.60;;;;;;;19.14;100.00;99665.44;4964819;28;20248;-85
2023/07/01 06:35:55;;;;;;;4.70;2.20;;;;;;;19.29;100.00;99686.28;4973066;28;20244;-81
2023/07/01 06:38:22;;;;;;;34.25;8.07;;;;;;;19.29;100.00;99653.25;4962295;28;20225;-83
2023/07/01 06:40:49;;;;;;;4.15;1.90;;;;;;;19.23;100.00;99624.88;4968121;28;20235;-82
2023/07/01 06:43:16;;;;;;;29.23;7.07;;;;;;;19.26;100.00;99615.81;4966927;28;20231;-82
2023/07/01 06:45:43;;;;;;;5.32;2.45;;;;;;;19.14;100.00;99604.66;4972559;28;20263;-80
2023/07/01 06:48:10;;;;;;;18.13;4.95;;;;;;;19.26;100.00;99597.06;4976363;28;20231;-81
2023/07/01 06:50:37;;;;;;;3.92;1.85;;;;;;;19.45;100.00;99581.97;4973565;28;20235;-81
2023/07/01 06:53:04;;;;;;;4.53;1.98;;;;;;;19.54;100.00;99572.75;4976139;28;20243;-81
2023/07/01 06:55:31;;;;;;;8.90;3.55;;;;;;;19.53;100.00;99554.91;4944538;28;20232;-83
2023/07/01 06:58:02;;;;;;;4.50;1.90;;;;;;;19.34;100.00;99535.97;4979501;28;20228;-82
2023/07/01 07:00:30;;;;;;;5.68;2.30;;;;;;;19.22;100.00;99556.09;4965724;28;20232;-84
2023/07/01 07:02:57;;;;;;;6.13;2.38;;;;;;;19.15;100.00;99541.22;4967117;28;20248;-81
2023/07/01 07:05:24;;;;;;;31.92;7.63;;;;;;;19.29;100.00;99571.00;4972032;28;20735;-83
2023/07/01 07:07:51;;;;;;;3.85;2.40;;;;;;;19.34;100.00;99546.69;4972874;28;20697;-80
2023/07/01 07:10:18;;;;;;;15.18;4.82;;;;;;;19.37;100.00;99523.31;4974354;28;20260;-80
2023/07/01 07:12:45;;;;;;;2.58;1.60;;;;;;;19.27;100.00;99480.88;4973580;28;20247;-81
2023/07/01 07:15:12;;;;;;;22.83;6.13;;;;;;;19.41;100.00;99503.47;4967924;28;20736;-82
2023/07/01 07:17:38;;;;;;;2.70;1.50;;;;;;;19.40;100.00;99460.66;4978184;28;20240;-82
2023/07/01 07:20:06;;;;;;;3.10;1.80;;;;;;;19.55;100.00;99449.34;4975896;28;20240;-86
2023/07/01 07:22:33;;;;;;;5.75;3.00;;;;;;;19.85;100.00;99459.66;4947074;28;20237;-80
2023/07/01 07:25:00;;;;;;;2.60;1.58;;;;;;;20.04;100.00;99464.13;4958794;28;20251;-81
2023/07/01 07:27:27;;;;;;;19.02;5.22;;;;;;;20.12;100.00;99451.25;4963909;28;20239;-80
2023/07/01 07:29:53;;;;;;;1.98;1.27;;;;;;;20.77;100.00;99482.22;4971896;28;20249;-83
2023/07/01 07:32:20;;;;;;;25.60;6.55;;;;;;;20.67;100.00;99454.06;4966945;28;20225;-82
2023/07/01 07:34:48;;;;;;;4.93;2.50;;;;;;;20.80;100.00;99442.72;4972364;28;20237;-83
2023/07/01 07:37:14;;;;;;;26.83;6.75;;;;;;;20.72;100.00;99411.72;4977458;28;20231;-83
2023/07/01 07:39:41;;;;;;;7.70;2.42;;;;;;;20.59;100.00;99397.16;4964127;28;20228;-78
2023/07/01 07:42:08;;;;;;;8.82;2.80;;;;;;;20.34;100.00;99310.63;4981450;28;20231;-82
2023/07/01 07:44:35;;;;;;;1.73;1.20;;;;;;;20.48;100.00;99316.22;4959191;28;20228;-81
2023/07/01 07:47:02;;;;;;;2.67;1.85;;;;;;;20.56;100.00;99286.31;4966046;28;20226;-78
2023/07/01 07:49:29;;;;;;;3.05;2.17;;;;;;;20.49;100.00;99264.25;4967294;28;20267;-81
2023/07/01 07:51:56;;;;;;;7.47;3.08;;;;;;;20.55;100.00;99290.81;4973408;28;20610;-82
2023/07/01 07:54:23;;;;;;;12.52;4.35;;;;;;;21.40;100.00;99377.88;4963126;28;20233;-83
2023/07/01 07:56:52;;;;;;;3.30;1.80;;;;;;;20.82;100.00;99224.09;4982765;28;20315;-81
2023/07/01 07:59:19;;;;;;;24.92;7.43;;;;;;;21.14;100.00;99267.22;4955403;28;20279;-80
2023/07/01 08:01:46;;;;;;;3.20;1.85;;;;;;;21.45;100.00;99296.94;4979313;28;20247;-80
2023/07/01 08:04:13;;;;;;;29.75;8.32;;;;;;;22.06;100.00;99316.97;4966355;28;20254;-80
2023/07/01 08:06:39;;;;;;;3.72;2.17;;;;;;;22.02;100.00;99271.38;4975981;28;20244;-77
2023/07/01 08:09:06;;;;;;;7.93;3.10;;;;;;;21.99;100.00;99244.59;4963242;28;20232;-78
2023/07/01 08:11:33;;;;;;;7.07;3.05;;;;;;;21.91;100.00;99198.41;4968310;28;20239;-79
2023/07/01 08:14:00;;;;;;;6.47;2.25;;;;;;;21.37;100.00;99146.75;4970989;28;20235;-79
2023/07/01 08:16:26;;;;;;;17.60;4.03;;;;;;;21.59;100.00;99121.34;4962193;28;20331;-83
2023/07/01 08:18:53;;;;;;;6.60;2.60;;;;;;;21.64;100.00;99095.91;4972965;28;20707;-80
2023/07/01 08:21:20;;;;;;;31.77;7.63;;;;;;;21.90;100.00;99080.94;4977537;28;20227;-78
2023/07/01 08:23:47;;;;;;;4.88;2.30;;;;;;;21.97;100.00;99085.00;4971743;28;20216;-84
2023/07/01 08:26:14;;;;;;;42.70;10.18;;;;;;;21.95;100.00;99030.41;4967919;28;20302;-81
2023/07/01 08:28:40;;;;;;;5.10;2.25;;;;;;;21.98;100.00;99003.31;4982815;28;20238;-78
2023/07/01 08:31:07;;;;;;;8.00;3.25;;;;;;;22.35;100.00;99026.22;4964380;28;20227;-79
2023/07/01 08:33:34;;;;;;;6.28;2.65;;;;;;;22.21;98.22;98953.50;4954918;28;20250;-84
2023/07/01 08:36:01;;;;;;;4.88;2.00;;;;;;;22.24;99.40;98949.75;4994128;23;20298;-78
2023/07/01 08:38:31;;;;;;;5.85;2.20;;;;;;;22.06;99.69;98919.41;4996611;28;20238;-78
2023/07/01 08:41:02;;;;;;;4.85;1.80;;;;;;;21.95;100.00;98903.91;4984212;28;20228;-79
2023/07/01 08:43:30;;;;;;;4.15;1.83;;;;;;;22.17;100.00;98938.50;4994636;28;20243;-79
2023/07/01 08:46:04;;;;;;;4.15;1.73;;;;;;;22.19;100.00;98906.09;4983324;28;20227;-79
2023/07/01 08:48:34;;;;;;;4.85;2.00;;;;;;;22.13;100.00;98876.88;4994492;28;20240;-77
2023/07/01 08:51:10;;;;;;;3.28;1.60;;;;;;;22.10;100.00;98856.34;4985444;28;20235;-76
2023/07/01 08:53:37;;;;;;;3.67;1.52;;;;;;;22.09;100.00;98883.38;4987812;28;20233;-77
2023/07/01 08:56:05;;;;;;;4.50;1.70;;;;;;;22.19;100.00;98880.03;4985798;28;20227;-77
2023/07/01 08:58:32;;;;;;;3.10;1.40;;;;;;;22.32;100.00;98880.13;4979597;28;20234;-78
2023/07/01 09:00:59;;;;;;;6.38;2.60;;;;;;;22.21;100.00;98826.94;4991112;28;20242;-79
2023/07/01 09:03:27;;;;;;;18.15;3.75;;;;;;;22.08;100.00;98835.88;4996737;28;20239;-78
2023/07/01 09:05:54;;;;;;;2.70;1.50;;;;;;;21.99;100.00;98823.81;4988365;28;20239;-79
2023/07/01 09:08:21;;;;;;;33.42;7.13;;;;;;;22.01;100.00;98838.91;4978088;28;20243;-80
2023/07/01 09:10:47;;;;;;;3.72;1.65;;;;;;;21.92;100.00;98828.72;5004143;28;20231;-79
2023/07/01 09:13:14;;;;;;;35.72;7.85;;;;;;;22.05;100.00;98866.53;4997924;28;20387;-78
2023/07/01 09:15:48;;;;;;;2.45;1.25;;;;;;;22.14;100.00;98870.50;4986967;28;20235;-78
2023/07/01 09:18:20;;;;;;;32.08;7.30;;;;;;;21.61;100.00;98773.28;4995085;28;20285;-78
2023/07/01 09:20:48;;;;;;;1.85;1.10;;;;;;;21.55;100.00;98781.72;5001786;28;20258;-80
2023/07/01 09:23:28;;;;;;;29.70;7.68;;;;;;;21.60;100.00;98817.28;4978490;28;20256;-77
2023/07/01 09:26:07;;;;;;;2.58;1.30;;;;;;;21.68;100.00;98817.69;4990295;28;20699;-77
2023/07/01 09:28:34;;;;;;;5.85;2.05;;;;;;;22.35;100.00;98885.31;5003569;28;20769;-79
2023/07/01 09:31:03;;;;;;;139.40;129.68;;;;;;;22.19;100.00;98858.50;5004108;28;20226;-76
2023/07/01 09:33:31;;;;;;;1142.07;999.90;;;;;;;21.98;100.00;98817.56;4989573;28;20231;-76
2023/07/01 09:36:01;;;;;;;879.65;825.38;;;;;;;21.77;100.00;98801.91;4997528;28;20231;-79
2023/07/01 09:38:28;;;;;;;856.22;801.83;;;;;;;21.78;100.00;98830.56;4994949;28;20699;-76
2023/07/01 09:40:55;;;;;;;1080.18;999.90;;;;;;;21.71;100.00;98809.41;4985350;28;20451;-78
2023/07/01 09:43:31;;;;;;;1158.85;999.90;;;;;;;21.73;100.00;98814.69;4970754;28;20443;-76
2023/07/01 09:45:58;;;;;;;10.82;3.63;;;;;;;22.08;100.00;98843.94;5002408;28;20238;-76
2023/07/01 09:48:25;;;;;;;52.58;9.00;;;;;;;21.98;100.00;98828.34;4991889;28;20293;-80
2023/07/01 09:50:52;;;;;;;654.75;613.28;;;;;;;22.04;100.00;98843.28;5002318;28;20690;-77
2023/07/01 09:53:24;;;;;;;52.78;8.57;;;;;;;21.99;100.00;98848.06;4993984;28;20603;-78
2023/07/01 09:55:51;;;;;;;9.98;2.33;;;;;;;21.80;100.00;98829.50;4996960;28;20279;-78
2023/07/01 09:58:17;;;;;;;29.70;7.00;;;;;;;21.66;100.00;98797.22;4989652;28;20231;-79
2023/07/01 10:00:44;;;;;;;900.55;846.17;;;;;;;21.81;100.00;98830.38;4980254;28;20227;-77
2023/07/01 10:03:11;;;;;;;952.33;887.92;;;;;;;21.96;100.00;98841.03;4975586;28;20234;-78
2023/07/01 10:05:39;;;;;;;906.72;849.35;;;;;;;21.85;100.00;98826.53;4995090;28;20253;-79
2023/07/01 10:08:06;;;;;;;921.30;863.20;;;;;;;21.73;100.00;98830.84;4971579;28;20235;-77
2023/07/01 10:10:32;;;;;;;898.53;842.38;;;;;;;21.70;100.00;98836.41;4998775;28;20345;-78
2023/07/01 10:13:01;;;;;;;912.05;855.45;;;;;;;21.81;100.00;98870.72;4994573;28;20223;-77
2023/07/01 10:15:35;;;;;;;912.03;855.05;;;;;;;22.01;100.00;98889.19;4993976;28;20238;-79
2023/07/01 10:18:01;;;;;;;884.25;828.38;;;;;;;21.80;100.00;98861.78;4991988;28;20242;-79
2023/07/01 10:20:34;;;;;;;910.30;853.88;;;;;;;21.65;100.00;98863.59;4981651;28;20231;-80
2023/07/01 10:23:04;;;;;;;896.50;841.78;;;;;;;21.35;100.00;98858.25;5004795;28;20224;-79
2023/07/01 10:25:35;;;;;;;895.63;840.20;;;;;;;21.31;100.00;98883.59;5003835;28;20234;-81
2023/07/01 10:28:06;;;;;;;906.67;850.17;;;;;;;21.23;100.00;98893.94;5006548;28;20314;-81
2023/07/01 10:30:42;;;;;;;899.67;843.03;;;;;;;21.36;100.00;98913.75;5006019;28;20233;-79
2023/07/01 10:33:27;;;;;;;879.75;823.40;;;;;;;21.44;100.00;98926.75;4998984;28;20223;-77
2023/07/01 10:36:07;;;;;;;885.70;830.22;;;;;;;21.43;100.00;98935.78;4997924;28;20225;-77
2023/07/01 10:38:35;;;;;;;891.75;835.95;;;;;;;21.16;100.00;98919.41;4996533;28;20300;-79
2023/07/01 10:41:06;;;;;;;902.80;845.97;;;;;;;21.34;100.00;98960.53;5004254;28;20313;-76
2023/07/01 10:43:34;;;;;;;885.03;829.40;;;;;;;21.37;100.00;98950.44;4987855;28;20297;-77
2023/07/01 10:46:07;;;;;;;881.50;826.60;;;;;;;21.46;100.00;98967.00;5003502;28;20239;-79
2023/07/01 10:48:35;;;;;;;876.28;820.78;;;;;;;21.09;100.00;98980.72;4989964;28;20270;-78
2023/07/01 10:51:08;;;;;;;878.90;824.00;;;;;;;21.18;100.00;99013.41;5003449;28;20239;-77
2023/07/01 10:53:55;;;;;;;877.00;821.35;;;;;;;21.28;100.00;99020.03;4999374;28;20242;-77
2023/07/01 10:56:22;;;;;;;907.00;847.70;;;;;;;21.40;100.00;99068.59;4975352;28;20227;-79
2023/07/01 10:59:16;;;;;;;877.53;821.53;;;;;;;21.65;100.00;99104.84;4985585;28;20319;-78
2023/07/01 11:01:45;;;;;;;872.10;817.03;;;;;;;21.56;100.00;99049.75;4995047;28;20231;-79
2023/07/01 11:04:12;;;;;;;894.25;836.45;;;;;;;21.37;100.00;99041.88;4995516;28;20255;-79
2023/07/01 11:06:52;;;;;;;874.88;820.08;;;;;;;21.27;100.00;99029.06;5002561;28;20265;-80
2023/07/01 11:09:46;;;;;;;898.28;839.28;;;;;;;21.23;100.00;99019.41;4996813;28;20231;-80
2023/07/01 11:12:12;;;;;;;896.38;838.75;;;;;;;21.21;100.00;99011.41;4979305;28;20306;-79
2023/07/01 11:14:40;;;;;;;873.80;818.28;;;;;;;21.09;100.00;99029.09;5003367;28;20238;-79
2023/07/01 11:17:18;;;;;;;875.63;821.05;;;;;;;21.09;100.00;99057.81;5000070;28;20227;-79
2023/07/01 11:19:45;;;;;;;880.03;824.95;;;;;;;20.97;100.00;99071.91;5002281;28;20239;-80
2023/07/01 11:22:15;;;;;;;894.25;836.10;;;;;;;20.87;100.00;99111.88;4995192;28;20270;-79